createdAt,value
2022-10-17T00:00:47.021Z,51.30
2022-10-17T00:03:36.560Z,51.20
2022-10-17T00:06:10.657Z,47.20
2022-10-17T00:08:43.526Z,47.10
2022-10-17T00:11:19.592Z,48.10
2022-10-17T00:13:56.929Z,49.70
2022-10-17T00:16:30.280Z,49.00
2022-10-17T00:19:02.683Z,48.10
2022-10-17T00:21:34.880Z,44.70
2022-10-17T00:24:07.960Z,49.40
2022-10-17T00:26:39.551Z,45.80
2022-10-17T00:29:11.312Z,42.60
2022-10-17T00:31:43.012Z,46.80
2022-10-17T00:34:16.292Z,39.10
2022-10-17T00:36:47.797Z,45.80
2022-10-17T00:39:20.180Z,43.10
2022-10-17T00:41:51.859Z,45.10
2022-10-17T00:44:59.919Z,46.40
2022-10-17T00:47:32.123Z,45.70
2022-10-17T00:50:05.409Z,49.70
2022-10-17T00:52:43.344Z,47.40
2022-10-17T00:55:19.927Z,48.10
2022-10-17T00:57:52.643Z,43.50
2022-10-17T01:00:28.229Z,45.90
2022-10-17T01:02:59.752Z,48.80
2022-10-17T01:05:31.879Z,46.00
2022-10-17T01:08:04.180Z,51.00
2022-10-17T01:10:44.955Z,51.80
2022-10-17T01:13:23.157Z,76.00
2022-10-17T01:16:07.775Z,65.70
2022-10-17T01:18:57.475Z,100.60
2022-10-17T01:21:45.758Z,70.30
2022-10-17T01:24:37.017Z,61.10
2022-10-17T01:27:30.620Z,53.80
2022-10-17T01:30:22.882Z,50.40
2022-10-17T01:33:01.964Z,45.00
2022-10-17T01:35:39.550Z,49.70
2022-10-17T01:38:15.966Z,41.90
2022-10-17T01:40:54.844Z,43.10
2022-10-17T01:43:33.946Z,40.00
2022-10-17T01:46:12.958Z,44.00
2022-10-17T01:48:47.099Z,36.90
2022-10-17T01:51:22.594Z,40.50
2022-10-17T01:54:00.674Z,41.70
2022-10-17T01:56:35.479Z,40.40
2022-10-17T01:59:12.097Z,41.70
2022-10-17T02:01:45.457Z,45.10
2022-10-17T02:04:18.782Z,37.70
2022-10-17T02:06:50.344Z,40.60
2022-10-17T02:09:25.454Z,41.50
2022-10-17T02:12:13.378Z,40.70
2022-10-17T02:15:00.277Z,33.00
2022-10-17T02:17:44.629Z,34.30
2022-10-17T02:20:27.610Z,31.40
2022-10-17T02:23:07.269Z,36.50
2022-10-17T02:25:46.400Z,29.70
2022-10-17T02:28:25.643Z,35.10
2022-10-17T02:31:07.669Z,33.00
2022-10-17T02:33:46.415Z,34.30
2022-10-17T02:36:29.452Z,28.80
2022-10-17T02:39:02.728Z,27.80
2022-10-17T02:41:37.221Z,25.40
2022-10-17T02:44:09.859Z,31.10
2022-10-17T02:46:46.495Z,30.00
2022-10-17T02:49:20.758Z,31.90
2022-10-17T02:51:59.851Z,29.70
2022-10-17T02:54:39.916Z,29.40
2022-10-17T02:57:16.330Z,26.80
2022-10-17T02:59:48.758Z,28.40
2022-10-17T03:02:23.142Z,30.10
2022-10-17T03:04:54.703Z,28.70
2022-10-17T03:07:26.273Z,32.60
2022-10-17T03:09:57.805Z,28.80
2022-10-17T03:12:31.252Z,30.10
2022-10-17T03:15:03.242Z,26.60
2022-10-17T03:17:35.006Z,31.60
2022-10-17T03:20:12.284Z,26.90
2022-10-17T03:22:45.492Z,28.10
2022-10-17T03:25:23.408Z,27.40
2022-10-17T03:27:55.156Z,30.60
2022-10-17T03:30:26.669Z,33.00
2022-10-17T03:33:00.843Z,31.00
2022-10-17T03:35:32.477Z,28.30
2022-10-17T03:38:04.130Z,33.70
2022-10-17T03:40:35.678Z,35.60
2022-10-17T03:43:08.128Z,31.30
2022-10-17T03:45:39.642Z,30.50
2022-10-17T03:48:11.296Z,31.90
2022-10-17T03:50:42.997Z,30.30
2022-10-17T03:53:15.320Z,30.40
2022-10-17T03:55:46.953Z,28.60
2022-10-17T03:58:18.533Z,28.60
2022-10-17T04:00:50.129Z,33.10
2022-10-17T04:03:23.313Z,34.30
2022-10-17T04:05:54.862Z,35.00
2022-10-17T04:08:26.706Z,35.80
2022-10-17T04:11:02.216Z,32.60
2022-10-17T04:13:34.407Z,33.60
2022-10-17T04:16:07.989Z,29.00
2022-10-17T04:18:39.551Z,32.30
2022-10-17T04:21:12.397Z,30.40
2022-10-17T04:23:44.731Z,30.70
2022-10-17T04:26:16.403Z,37.20
2022-10-17T04:28:48.064Z,35.90
2022-10-17T04:31:20.003Z,36.70
2022-10-17T04:33:53.116Z,36.80
2022-10-17T04:36:24.792Z,39.60
2022-10-17T04:38:56.403Z,45.60
2022-10-17T04:41:28.003Z,43.70
2022-10-17T04:43:59.665Z,48.60
2022-10-17T04:46:31.342Z,52.40
2022-10-17T04:49:02.940Z,44.30
2022-10-17T04:51:34.539Z,40.50
2022-10-17T04:54:06.982Z,42.20
2022-10-17T04:56:38.735Z,45.40
2022-10-17T04:59:11.125Z,49.40
2022-10-17T05:01:42.944Z,38.60
2022-10-17T05:04:15.291Z,39.60
2022-10-17T05:06:46.763Z,43.40
2022-10-17T05:09:18.357Z,42.00
2022-10-17T05:11:50.054Z,46.10
2022-10-17T05:14:22.515Z,48.80
2022-10-17T05:16:54.027Z,48.70
2022-10-17T05:19:25.935Z,53.10
2022-10-17T05:21:58.453Z,66.50
2022-10-17T05:24:30.889Z,70.50
2022-10-17T05:27:02.892Z,71.60
2022-10-17T05:29:35.304Z,74.10
2022-10-17T05:32:07.775Z,67.80
2022-10-17T05:34:40.198Z,71.20
2022-10-17T05:37:11.740Z,70.30
2022-10-17T05:39:45.070Z,67.80
2022-10-17T05:42:18.281Z,57.20
2022-10-17T05:44:50.001Z,70.00
2022-10-17T05:47:21.606Z,65.10
2022-10-17T05:49:53.303Z,66.40
2022-10-17T05:52:25.628Z,60.90
2022-10-17T05:54:57.331Z,63.00
2022-10-17T05:57:29.626Z,65.70
2022-10-17T06:00:05.052Z,54.10
2022-10-17T06:02:40.472Z,60.20
2022-10-17T06:05:32.201Z,50.70
2022-10-17T06:08:58.033Z,46.40
2022-10-17T06:11:46.493Z,39.70
2022-10-17T06:14:18.125Z,41.60
2022-10-17T06:16:49.780Z,45.00
2022-10-17T06:19:22.622Z,48.60
2022-10-17T06:21:55.651Z,62.50
2022-10-17T06:24:27.460Z,73.00
2022-10-17T06:26:59.895Z,80.60
2022-10-17T06:29:31.539Z,94.90
2022-10-17T06:32:04.026Z,73.30
2022-10-17T06:34:35.793Z,70.70
2022-10-17T06:37:08.277Z,72.60
2022-10-17T06:39:39.960Z,57.40
2022-10-17T06:42:13.382Z,46.10
2022-10-17T06:44:44.853Z,47.20
2022-10-17T06:47:19.242Z,44.80
2022-10-17T06:49:51.802Z,37.30
2022-10-17T06:52:23.533Z,39.00
2022-10-17T06:54:55.389Z,40.00
2022-10-17T06:57:27.492Z,36.30
2022-10-17T06:59:59.344Z,37.10
2022-10-17T07:02:31.282Z,33.80
2022-10-17T07:05:03.791Z,32.70
2022-10-17T07:07:38.855Z,31.00
2022-10-17T07:10:13.597Z,31.10
2022-10-17T07:12:46.668Z,35.00
2022-10-17T07:15:18.405Z,33.00
2022-10-17T07:17:52.308Z,32.20
2022-10-17T07:20:24.152Z,35.90
2022-10-17T07:22:55.886Z,34.30
2022-10-17T07:25:28.509Z,31.70
2022-10-17T07:28:00.215Z,30.00
2022-10-17T07:30:31.877Z,28.50
2022-10-17T07:33:03.593Z,29.20
2022-10-17T07:35:35.225Z,34.60
2022-10-17T07:38:06.851Z,31.20
2022-10-17T07:40:38.712Z,32.50
2022-10-17T07:43:11.224Z,29.20
2022-10-17T07:45:43.559Z,25.00
2022-10-17T07:48:15.180Z,28.10
2022-10-17T07:50:47.080Z,28.20
2022-10-17T07:53:19.406Z,25.00
2022-10-17T07:55:51.487Z,22.20
2022-10-17T07:58:23.068Z,22.70
2022-10-17T08:00:54.726Z,25.70
2022-10-17T08:03:26.523Z,24.40
2022-10-17T08:06:04.093Z,27.40
2022-10-17T08:08:36.406Z,24.30
2022-10-17T08:11:10.317Z,23.50
2022-10-17T08:13:42.793Z,26.30
2022-10-17T08:16:15.029Z,29.60
2022-10-17T08:18:46.640Z,25.70
2022-10-17T08:21:18.176Z,24.60
2022-10-17T08:23:50.651Z,24.40
2022-10-17T08:26:23.006Z,24.10
2022-10-17T08:28:54.781Z,26.40
2022-10-17T08:31:27.364Z,23.20
2022-10-17T08:34:00.638Z,25.30
2022-10-17T08:36:32.150Z,24.40
2022-10-17T08:39:03.893Z,21.50
2022-10-17T08:42:00.684Z,20.50
2022-10-17T08:44:47.741Z,23.70
2022-10-17T08:47:28.040Z,23.70
2022-10-17T08:50:03.272Z,22.10
2022-10-17T08:52:41.352Z,20.10
2022-10-17T08:55:20.947Z,21.70
2022-10-17T08:57:52.611Z,18.70
2022-10-17T09:00:29.324Z,24.60
2022-10-17T09:03:17.074Z,18.70
2022-10-17T09:05:55.367Z,17.30
2022-10-17T09:08:44.151Z,18.40
2022-10-17T09:11:28.552Z,16.60
2022-10-17T09:14:14.155Z,20.40
2022-10-17T09:17:02.442Z,18.60
2022-10-17T09:19:37.527Z,18.70
2022-10-17T09:22:16.086Z,19.80
2022-10-17T09:24:50.907Z,19.70
2022-10-17T09:27:26.487Z,19.00
2022-10-17T09:30:26.859Z,19.10
2022-10-17T09:32:58.800Z,18.70
2022-10-17T09:35:31.384Z,21.80
2022-10-17T09:38:03.203Z,18.40
2022-10-17T09:40:37.779Z,19.10
2022-10-17T09:43:12.598Z,23.10
2022-10-17T09:45:57.135Z,21.70
2022-10-17T09:48:33.865Z,20.30
2022-10-17T09:51:15.107Z,23.50
2022-10-17T09:54:03.831Z,20.00
2022-10-17T09:57:02.460Z,18.50
2022-10-17T09:59:36.608Z,16.90
2022-10-17T10:02:21.000Z,19.40
2022-10-17T10:05:06.467Z,20.60
2022-10-17T10:07:40.412Z,15.30
2022-10-17T10:10:30.250Z,19.10
2022-10-17T10:13:17.418Z,19.20
2022-10-17T10:15:50.827Z,15.20
2022-10-17T10:18:37.154Z,22.20
2022-10-17T10:21:12.974Z,16.20
2022-10-17T10:23:46.750Z,14.70
2022-10-17T10:26:24.818Z,17.30
2022-10-17T10:29:00.099Z,17.20
2022-10-17T10:31:39.006Z,16.20
2022-10-17T10:34:35.813Z,17.10
2022-10-17T10:37:18.698Z,19.30
2022-10-17T10:39:52.909Z,16.00
2022-10-17T10:42:30.238Z,16.20
2022-10-17T10:45:23.693Z,20.90
2022-10-17T10:48:04.125Z,21.10
2022-10-17T10:50:44.392Z,17.40
2022-10-17T10:53:34.768Z,17.60
2022-10-17T10:56:13.527Z,14.80
2022-10-17T10:58:55.218Z,13.50
2022-10-17T11:01:36.343Z,11.90
2022-10-17T11:04:22.128Z,14.90
2022-10-17T11:07:00.211Z,14.40
2022-10-17T11:09:43.830Z,15.20
2022-10-17T11:12:20.024Z,15.50
2022-10-17T11:14:58.835Z,11.10
2022-10-17T11:17:38.086Z,13.70
2022-10-17T11:20:26.105Z,11.90
2022-10-17T11:23:24.874Z,13.10
2022-10-17T11:26:05.178Z,12.00
2022-10-17T11:28:36.980Z,10.10
2022-10-17T11:31:14.682Z,12.00
2022-10-17T11:33:50.084Z,16.20
2022-10-17T11:36:27.296Z,20.20
2022-10-17T11:39:02.713Z,10.80
2022-10-17T11:41:40.604Z,11.70
2022-10-17T11:44:20.917Z,12.60
2022-10-17T11:46:55.820Z,13.10
2022-10-17T11:49:34.212Z,11.70
2022-10-17T11:52:43.887Z,9.30
2022-10-17T11:55:18.847Z,10.20
2022-10-17T11:58:02.939Z,10.10
2022-10-17T12:01:02.567Z,11.80
2022-10-17T12:03:49.495Z,9.40
2022-10-17T12:06:32.638Z,9.40
2022-10-17T12:09:11.320Z,10.10
2022-10-17T12:11:55.964Z,10.00
2022-10-17T12:14:48.490Z,13.40
2022-10-17T12:17:38.918Z,11.10
2022-10-17T12:23:24.771Z,10.10
2022-10-17T12:26:01.502Z,9.70
2022-10-17T12:28:47.782Z,9.20
2022-10-17T12:31:34.139Z,10.60
2022-10-17T12:34:06.897Z,11.20
2022-10-17T12:36:42.357Z,8.40
2022-10-17T12:39:46.792Z,11.70
2022-10-17T12:42:46.694Z,8.30
2022-10-17T12:45:53.033Z,9.00
2022-10-17T12:49:04.744Z,8.60
2022-10-17T12:52:06.008Z,9.70
2022-10-17T12:54:53.540Z,9.10
2022-10-17T12:57:38.691Z,9.90
2022-10-17T13:00:29.439Z,9.70
2022-10-17T13:03:07.880Z,12.30
2022-10-17T13:05:42.321Z,9.90
2022-10-17T13:08:20.461Z,11.50
2022-10-17T13:10:55.183Z,10.70
2022-10-17T13:13:36.831Z,9.30
2022-10-17T13:16:28.363Z,12.20
2022-10-17T13:19:00.401Z,11.60
2022-10-17T13:21:33.195Z,11.50
2022-10-17T13:24:22.816Z,13.70
2022-10-17T13:26:54.362Z,11.20
2022-10-17T13:29:28.603Z,12.20
2022-10-17T13:32:04.011Z,15.00
2022-10-17T13:34:36.859Z,10.70
2022-10-17T13:37:12.369Z,13.20
2022-10-17T13:39:55.312Z,9.70
2022-10-17T13:42:30.486Z,9.50
2022-10-17T13:45:02.673Z,9.00
2022-10-17T13:47:40.396Z,9.40
2022-10-17T13:50:43.483Z,13.90
2022-10-17T13:53:26.541Z,12.30
2022-10-17T13:56:22.880Z,10.40
2022-10-17T13:58:53.662Z,12.30
2022-10-17T14:01:27.992Z,9.90
2022-10-17T14:04:09.023Z,10.20
2022-10-17T14:06:47.871Z,10.10
2022-10-17T14:09:26.274Z,8.80
2022-10-17T14:12:04.802Z,10.90
2022-10-17T14:14:58.034Z,10.20
2022-10-17T14:17:31.180Z,11.40
2022-10-17T14:20:34.113Z,8.80
2022-10-17T14:23:21.965Z,10.50
2022-10-17T14:25:49.055Z,12.60
2022-10-17T14:28:23.583Z,14.80
2022-10-17T14:31:10.673Z,15.10
2022-10-17T14:33:50.599Z,17.10
2022-10-17T14:36:34.338Z,16.20
2022-10-17T14:39:14.089Z,14.50
2022-10-17T14:41:47.234Z,18.40
2022-10-17T14:44:26.422Z,17.50
2022-10-17T14:47:18.267Z,16.80
2022-10-17T14:50:03.503Z,14.90
2022-10-17T14:52:40.949Z,19.20
2022-10-17T14:55:27.450Z,19.90
2022-10-17T14:57:59.076Z,17.90
2022-10-17T15:00:30.957Z,18.90
2022-10-17T15:03:02.584Z,17.60
2022-10-17T15:05:35.695Z,16.10
2022-10-17T15:08:12.251Z,22.80
2022-10-17T15:10:44.694Z,24.10
2022-10-17T15:13:27.640Z,21.30
2022-10-17T15:16:00.533Z,19.10
2022-10-17T15:18:32.626Z,27.30
2022-10-17T15:21:05.359Z,20.00
2022-10-17T15:23:38.239Z,23.00
2022-10-17T15:26:16.433Z,28.00
2022-10-17T15:28:49.582Z,24.80
2022-10-17T15:31:23.168Z,22.80
2022-10-17T15:33:55.086Z,24.30
2022-10-17T15:36:30.308Z,22.50
2022-10-17T15:39:02.940Z,32.30
2022-10-17T15:41:35.020Z,22.00
2022-10-17T15:44:07.127Z,27.40
2022-10-17T15:46:42.799Z,27.70
2022-10-17T15:49:17.356Z,26.40
2022-10-17T15:51:54.374Z,27.60
2022-10-17T15:54:27.135Z,29.20
2022-10-17T15:56:58.831Z,32.70
2022-10-17T15:59:34.752Z,29.60
2022-10-17T16:02:12.633Z,29.50
2022-10-17T16:04:44.935Z,30.80
2022-10-17T16:07:16.974Z,29.00
2022-10-17T16:09:48.852Z,27.60
2022-10-17T16:12:28.129Z,32.50
2022-10-17T16:14:59.855Z,29.50
2022-10-17T16:17:31.822Z,30.00
2022-10-17T16:20:03.529Z,37.70
2022-10-17T16:22:37.025Z,35.80
2022-10-17T16:25:19.607Z,35.20
2022-10-17T16:27:52.709Z,42.00
2022-10-17T16:30:32.830Z,43.20
2022-10-17T16:33:06.230Z,54.70
2022-10-17T16:35:37.942Z,49.40
2022-10-17T16:38:10.113Z,48.00
2022-10-17T16:40:49.947Z,52.90
2022-10-17T16:43:21.535Z,53.70
2022-10-17T16:45:53.197Z,45.40
2022-10-17T16:48:29.517Z,45.90
2022-10-17T16:51:10.403Z,50.00
2022-10-17T16:53:43.942Z,49.70
2022-10-17T16:56:18.073Z,44.70
2022-10-17T16:58:50.470Z,54.20
2022-10-17T17:01:24.524Z,53.00
2022-10-17T17:03:56.276Z,63.00
2022-10-17T17:06:29.770Z,52.90
2022-10-17T17:09:01.320Z,62.50
2022-10-17T17:11:38.060Z,59.00
2022-10-17T17:14:10.431Z,70.50
2022-10-17T17:16:43.434Z,82.10
2022-10-17T17:19:17.573Z,83.00
2022-10-17T17:21:51.012Z,82.10
2022-10-17T17:24:24.003Z,76.30
2022-10-17T17:26:57.047Z,71.70
2022-10-17T17:29:28.638Z,71.30
2022-10-17T17:32:00.192Z,80.60
2022-10-17T17:34:32.501Z,74.80
2022-10-17T17:37:04.258Z,69.50
2022-10-17T17:39:36.006Z,71.00
2022-10-17T17:42:07.588Z,69.80
2022-10-17T17:44:39.155Z,71.60
2022-10-17T17:47:10.809Z,64.80
2022-10-17T17:49:42.383Z,70.00
2022-10-17T17:52:14.004Z,67.90
2022-10-17T17:54:46.808Z,68.90
2022-10-17T17:57:18.427Z,66.60
2022-10-17T17:59:50.220Z,65.20
2022-10-17T18:02:21.768Z,60.90
2022-10-17T18:04:54.374Z,54.90
2022-10-17T18:07:26.375Z,57.00
2022-10-17T18:09:58.158Z,56.70
2022-10-17T18:12:31.297Z,49.50
2022-10-17T18:15:03.965Z,52.00
2022-10-17T18:17:35.833Z,52.10
2022-10-17T18:20:11.773Z,55.80
2022-10-17T18:22:43.372Z,59.70
2022-10-17T18:25:15.328Z,57.80
2022-10-17T18:27:48.520Z,52.40
2022-10-17T18:30:25.486Z,48.50
2022-10-17T18:32:58.949Z,47.30
2022-10-17T18:35:30.549Z,56.80
2022-10-17T18:38:02.164Z,57.50
2022-10-17T18:40:33.759Z,52.70
2022-10-17T18:43:06.311Z,56.90
2022-10-17T18:45:38.701Z,56.50
2022-10-17T18:48:10.789Z,53.70
2022-10-17T18:50:42.595Z,53.30
2022-10-17T18:53:14.150Z,54.90
2022-10-17T18:58:23.488Z,61.80
2022-10-17T19:00:55.079Z,55.50
2022-10-17T19:03:26.608Z,50.10
2022-10-17T19:06:01.204Z,53.10
2022-10-17T19:08:32.934Z,49.00
2022-10-17T19:11:09.911Z,54.00
2022-10-17T19:13:42.609Z,45.00
2022-10-17T19:16:16.593Z,48.90
2022-10-17T19:18:52.294Z,49.30
2022-10-17T19:21:24.227Z,49.00
2022-10-17T19:23:57.444Z,49.80
2022-10-17T19:26:32.346Z,53.30
2022-10-17T19:29:04.571Z,50.00
2022-10-17T19:31:37.194Z,56.80
2022-10-17T19:34:08.735Z,50.00
2022-10-17T19:36:40.927Z,52.10
2022-10-17T19:39:15.104Z,48.40
2022-10-17T19:41:48.707Z,50.00
2022-10-17T19:44:20.493Z,51.50
2022-10-17T19:46:52.105Z,47.90
2022-10-17T19:49:23.629Z,47.50
2022-10-17T19:51:55.200Z,49.90
2022-10-17T19:54:26.741Z,45.40
2022-10-17T19:56:58.475Z,46.80
2022-10-17T19:59:30.077Z,50.80
2022-10-17T20:02:01.832Z,50.80
2022-10-17T20:04:33.500Z,49.30
2022-10-17T20:07:05.063Z,49.80
2022-10-17T20:09:36.790Z,47.60
2022-10-17T20:12:08.978Z,46.80
2022-10-17T20:14:41.201Z,44.10
2022-10-17T20:17:12.858Z,46.30
2022-10-17T20:19:44.726Z,45.70
2022-10-17T20:22:16.445Z,43.00
2022-10-17T20:24:48.210Z,44.00
2022-10-17T20:27:22.165Z,53.40
2022-10-17T20:29:55.946Z,46.10
2022-10-17T20:32:27.705Z,56.50
2022-10-17T20:34:59.622Z,43.90
2022-10-17T20:37:36.392Z,55.50
2022-10-17T20:40:34.700Z,49.00
2022-10-17T20:43:09.395Z,47.70
2022-10-17T20:45:50.782Z,48.60
2022-10-17T20:48:23.577Z,53.90
2022-10-17T20:50:55.995Z,50.70
2022-10-17T20:53:42.804Z,48.60
2022-10-17T20:56:22.142Z,55.10
2022-10-17T20:58:55.723Z,56.10
2022-10-17T21:01:29.768Z,55.00
2022-10-17T21:04:21.296Z,50.80
2022-10-17T21:06:53.670Z,52.70
2022-10-17T21:09:25.277Z,53.60
2022-10-17T21:11:57.944Z,51.40
2022-10-17T21:14:29.558Z,62.60
2022-10-17T21:17:04.932Z,60.40
2022-10-17T21:19:36.981Z,52.10
2022-10-17T21:22:09.357Z,52.30
2022-10-17T21:24:41.179Z,52.60
2022-10-17T21:27:17.671Z,52.20
2022-10-17T21:29:50.096Z,52.60
2022-10-17T21:32:47.298Z,52.90
2022-10-17T21:35:14.051Z,52.20
2022-10-17T21:37:45.878Z,50.20
2022-10-17T21:40:17.414Z,51.50
2022-10-17T21:42:49.879Z,53.20
2022-10-17T21:45:25.856Z,49.00
2022-10-17T21:48:13.598Z,50.20
2022-10-17T21:50:45.375Z,50.10
2022-10-17T21:53:17.755Z,53.00
2022-10-17T21:55:49.336Z,51.80
2022-10-17T21:58:21.224Z,51.00
2022-10-17T22:00:52.783Z,54.10
2022-10-17T22:03:26.898Z,53.70
2022-10-17T22:06:07.057Z,51.00
2022-10-17T22:08:51.113Z,50.00
2022-10-17T22:11:24.862Z,51.10
2022-10-17T22:13:59.637Z,53.00
2022-10-17T22:16:31.357Z,53.40
2022-10-17T22:19:06.421Z,47.90
2022-10-17T22:21:38.970Z,49.50
2022-10-17T22:24:14.139Z,48.00
2022-10-17T22:26:47.451Z,50.30
2022-10-17T22:29:19.858Z,48.40
2022-10-17T22:31:51.403Z,47.10
2022-10-17T22:34:24.535Z,49.00
2022-10-17T22:36:56.108Z,44.20
2022-10-17T22:39:27.729Z,47.90
2022-10-17T22:41:59.287Z,49.10
2022-10-17T22:44:31.706Z,47.30
2022-10-17T22:47:03.243Z,49.90
2022-10-17T22:49:35.731Z,50.70
2022-10-17T22:52:07.597Z,44.70
2022-10-17T22:54:40.007Z,48.10
2022-10-17T22:57:11.547Z,45.30
2022-10-17T22:59:43.162Z,49.80
2022-10-17T23:02:14.857Z,43.40
2022-10-17T23:04:48.367Z,52.00
2022-10-17T23:07:19.889Z,46.10
2022-10-17T23:09:51.601Z,47.30
2022-10-17T23:12:23.453Z,44.10
2022-10-17T23:14:56.669Z,41.00
2022-10-17T23:17:28.185Z,40.70
2022-10-17T23:19:59.823Z,41.70
2022-10-17T23:22:31.505Z,41.30
2022-10-17T23:25:05.081Z,41.70
2022-10-17T23:27:38.114Z,43.60
2022-10-17T23:30:21.561Z,45.00
2022-10-17T23:32:54.281Z,45.20
2022-10-17T23:35:25.926Z,43.60
2022-10-17T23:37:57.555Z,45.70
2022-10-17T23:42:21.285Z,48.10
2022-10-17T23:44:53.302Z,42.20
2022-10-17T23:47:24.970Z,42.20
2022-10-17T23:49:56.512Z,40.70
2022-10-17T23:52:30.884Z,40.80
2022-10-17T23:55:02.492Z,44.10
2022-10-17T23:57:34.491Z,39.90
